createdAt,value
2018-12-03T00:01:33.648Z,8.87
2018-12-03T00:04:00.023Z,9.20
2018-12-03T00:06:26.331Z,8.97
2018-12-03T00:08:52.724Z,9.20
2018-12-03T00:11:19.168Z,9.43
2018-12-03T00:13:45.500Z,10.50
2018-12-03T00:16:11.853Z,9.03
2018-12-03T00:18:38.182Z,8.77
2018-12-03T00:21:04.592Z,8.67
2018-12-03T00:23:31.095Z,8.67
2018-12-03T00:25:57.509Z,8.93
2018-12-03T00:28:23.856Z,9.00
2018-12-03T00:30:50.276Z,8.17
2018-12-03T00:33:16.651Z,7.83
2018-12-03T00:35:43.089Z,10.20
2018-12-03T00:38:09.416Z,8.17
2018-12-03T00:40:35.826Z,8.50
2018-12-03T00:43:02.238Z,11.33
2018-12-03T00:45:28.788Z,9.47
2018-12-03T00:47:55.197Z,8.60
2018-12-03T00:50:21.557Z,9.37
2018-12-03T00:52:47.917Z,10.47
2018-12-03T00:55:14.321Z,9.23
2018-12-03T00:57:40.726Z,9.50
2018-12-03T01:00:07.055Z,9.73
2018-12-03T01:02:33.393Z,10.17
2018-12-03T01:04:59.722Z,9.80
2018-12-03T01:07:26.073Z,9.10
2018-12-03T01:09:52.608Z,10.07
2018-12-03T01:12:18.934Z,8.73
2018-12-03T01:14:45.331Z,12.03
2018-12-03T01:17:11.679Z,8.27
2018-12-03T01:19:38.111Z,9.40
2018-12-03T01:22:04.540Z,9.00
2018-12-03T01:24:30.880Z,9.63
2018-12-03T01:26:57.232Z,11.00
2018-12-03T01:29:23.632Z,9.70
2018-12-03T01:31:49.904Z,10.23
2018-12-03T01:34:16.232Z,9.47
2018-12-03T01:36:42.575Z,10.07
2018-12-03T01:39:08.907Z,10.20
2018-12-03T01:41:35.238Z,9.53
2018-12-03T01:44:01.579Z,10.10
2018-12-03T01:46:27.946Z,10.93
2018-12-03T01:48:54.276Z,10.83
2018-12-03T01:51:20.696Z,9.60
2018-12-03T01:53:47.097Z,9.50
2018-12-03T01:56:13.408Z,11.90
2018-12-03T01:58:39.744Z,10.20
2018-12-03T02:01:06.109Z,12.40
2018-12-03T02:03:32.462Z,11.20
2018-12-03T02:05:58.790Z,10.13
2018-12-03T02:08:25.176Z,10.77
2018-12-03T02:10:51.517Z,9.93
2018-12-03T02:13:17.850Z,10.90
2018-12-03T02:15:44.249Z,10.10
2018-12-03T02:18:10.652Z,10.50
2018-12-03T02:20:36.922Z,9.37
2018-12-03T02:23:03.344Z,12.57
2018-12-03T02:25:29.668Z,9.93
2018-12-03T02:27:55.999Z,10.30
2018-12-03T02:30:22.488Z,10.03
2018-12-03T02:32:48.844Z,10.10
2018-12-03T02:35:15.132Z,10.53
2018-12-03T02:37:41.520Z,9.33
2018-12-03T02:40:07.844Z,8.63
2018-12-03T02:42:34.383Z,9.50
2018-12-03T02:45:00.747Z,10.40
2018-12-03T02:47:27.071Z,9.90
2018-12-03T02:49:53.549Z,10.17
2018-12-03T02:52:20.032Z,9.57
2018-12-03T02:54:46.532Z,9.90
2018-12-03T02:57:12.804Z,10.00
2018-12-03T02:59:39.187Z,10.27
2018-12-03T03:02:05.544Z,10.03
2018-12-03T03:04:31.890Z,9.03
2018-12-03T03:06:58.253Z,9.90
2018-12-03T03:09:24.656Z,10.60
2018-12-03T03:11:51.065Z,10.37
2018-12-03T03:14:17.641Z,9.97
2018-12-03T03:16:44.022Z,10.53
2018-12-03T03:19:10.300Z,9.90
2018-12-03T03:21:37.945Z,8.90
2018-12-03T03:24:02.998Z,10.23
2018-12-03T03:26:31.594Z,9.23
2018-12-03T03:28:57.929Z,9.97
2018-12-03T03:31:24.415Z,9.17
2018-12-03T03:33:50.772Z,9.37
2018-12-03T03:36:17.234Z,10.20
2018-12-03T03:38:43.562Z,9.80
2018-12-03T03:41:09.899Z,9.77
2018-12-03T03:43:36.234Z,9.60
2018-12-03T03:46:02.590Z,8.93
2018-12-03T03:48:28.981Z,9.90
2018-12-03T03:50:55.241Z,10.20
2018-12-03T03:53:21.559Z,9.33
2018-12-03T03:55:47.954Z,10.00
2018-12-03T03:58:14.282Z,10.27
2018-12-03T04:00:40.675Z,10.63
2018-12-03T04:03:07.063Z,10.10
2018-12-03T04:05:33.409Z,10.13
2018-12-03T04:07:59.810Z,10.93
2018-12-03T04:10:26.149Z,11.70
2018-12-03T04:12:52.507Z,10.57
2018-12-03T04:15:19.040Z,10.23
2018-12-03T04:17:45.369Z,10.33
2018-12-03T04:20:11.710Z,10.27
2018-12-03T04:22:38.054Z,11.13
2018-12-03T04:25:04.434Z,10.83
2018-12-03T04:27:30.869Z,10.73
2018-12-03T04:29:57.196Z,10.73
2018-12-03T04:32:23.533Z,11.57
2018-12-03T04:34:49.885Z,10.97
2018-12-03T04:37:16.228Z,10.50
2018-12-03T04:39:42.553Z,10.80
2018-12-03T04:42:08.950Z,10.83
2018-12-03T04:44:35.398Z,11.57
2018-12-03T04:47:01.745Z,11.60
2018-12-03T04:49:28.075Z,11.33
2018-12-03T04:51:54.441Z,11.10
2018-12-03T04:54:20.780Z,16.23
2018-12-03T04:56:47.112Z,10.40
2018-12-03T04:59:13.484Z,13.90
2018-12-03T05:01:39.782Z,13.23
2018-12-03T05:04:06.113Z,14.57
2018-12-03T05:06:32.512Z,13.43
2018-12-03T05:08:58.841Z,11.17
2018-12-03T05:11:25.171Z,12.00
2018-12-03T05:13:51.499Z,14.53
2018-12-03T05:16:17.832Z,12.53
2018-12-03T05:18:44.162Z,14.37
2018-12-03T05:21:10.494Z,11.37
2018-12-03T05:23:36.829Z,10.50
2018-12-03T05:26:03.175Z,11.33
2018-12-03T05:28:29.546Z,10.60
2018-12-03T05:30:55.903Z,9.20
2018-12-03T05:33:22.236Z,12.60
2018-12-03T05:35:48.571Z,10.70
2018-12-03T05:38:15.020Z,11.57
2018-12-03T05:40:41.391Z,10.37
2018-12-03T05:43:07.773Z,12.43
2018-12-03T05:45:34.131Z,12.50
2018-12-03T05:48:00.504Z,11.77
2018-12-03T05:50:26.886Z,11.33
2018-12-03T05:52:53.237Z,10.93
2018-12-03T05:55:19.584Z,10.60
2018-12-03T05:57:45.917Z,11.90
2018-12-03T06:00:12.379Z,11.10
2018-12-03T06:02:38.718Z,12.10
2018-12-03T06:05:05.046Z,11.67
2018-12-03T06:07:31.375Z,11.57
2018-12-03T06:09:57.708Z,11.80
2018-12-03T06:12:24.043Z,12.83
2018-12-03T06:14:50.416Z,10.07
2018-12-03T06:17:16.750Z,11.23
2018-12-03T06:19:43.085Z,15.60
2018-12-03T06:22:09.417Z,16.33
2018-12-03T06:24:35.785Z,12.17
2018-12-03T06:27:02.117Z,13.40
2018-12-03T06:29:28.478Z,12.60
2018-12-03T06:31:54.853Z,14.43
2018-12-03T06:34:21.195Z,14.70
2018-12-03T06:36:47.742Z,15.90
2018-12-03T06:39:14.229Z,15.73
2018-12-03T06:41:40.515Z,11.90
2018-12-03T06:44:06.846Z,12.67
2018-12-03T06:46:33.178Z,13.70
2018-12-03T06:48:59.599Z,12.30
2018-12-03T06:51:26.013Z,10.80
2018-12-03T06:53:52.361Z,12.67
2018-12-03T06:56:18.692Z,11.37
2018-12-03T06:58:45.022Z,11.30
2018-12-03T07:01:11.372Z,18.93
2018-12-03T07:03:37.762Z,12.97
2018-12-03T07:06:04.221Z,13.90
2018-12-03T07:08:30.566Z,17.83
2018-12-03T07:10:56.932Z,11.20
2018-12-03T07:13:23.305Z,11.80
2018-12-03T07:15:49.700Z,9.27
2018-12-03T07:18:16.026Z,11.30
2018-12-03T07:20:42.400Z,9.50
2018-12-03T07:23:08.828Z,10.30
2018-12-03T07:25:35.266Z,10.53
2018-12-03T07:28:01.591Z,8.40
2018-12-03T07:30:27.987Z,11.37
2018-12-03T07:32:54.320Z,10.93
2018-12-03T07:35:21.118Z,7.47
2018-12-03T07:37:48.566Z,7.90
2018-12-03T07:40:14.897Z,10.00
2018-12-03T07:42:41.286Z,8.80
2018-12-03T07:45:07.611Z,9.10
2018-12-03T07:47:33.959Z,8.57
2018-12-03T07:50:00.330Z,11.27
2018-12-03T07:52:26.669Z,20.73
2018-12-03T07:54:52.998Z,9.50
2018-12-03T07:57:19.495Z,7.80
2018-12-03T07:59:45.816Z,8.13
2018-12-03T08:02:12.168Z,8.23
2018-12-03T08:04:38.519Z,8.90
2018-12-03T08:07:04.859Z,7.73
2018-12-03T08:09:31.240Z,8.27
2018-12-03T08:11:57.582Z,8.70
2018-12-03T08:14:23.914Z,9.13
2018-12-03T08:16:51.354Z,8.83
2018-12-03T08:19:17.678Z,7.20
2018-12-03T08:21:44.013Z,9.77
2018-12-03T08:24:10.348Z,9.53
2018-12-03T08:26:36.722Z,9.10
2018-12-03T08:29:03.089Z,8.73
2018-12-03T08:31:29.432Z,14.53
2018-12-03T08:33:55.828Z,9.80
2018-12-03T08:36:22.189Z,8.70
2018-12-03T08:38:48.512Z,8.97
2018-12-03T08:41:14.945Z,9.90
2018-12-03T08:43:41.355Z,7.57
2018-12-03T08:46:07.738Z,9.93
2018-12-03T08:48:34.049Z,10.30
2018-12-03T08:51:00.454Z,7.87
2018-12-03T08:53:26.812Z,8.60
2018-12-03T08:55:53.152Z,13.10
2018-12-03T08:58:19.549Z,8.77
2018-12-03T09:00:46.874Z,8.63
2018-12-03T09:03:13.342Z,10.07
2018-12-03T09:05:40.717Z,11.90
2018-12-03T09:08:07.143Z,8.90
2018-12-03T09:10:33.583Z,9.60
2018-12-03T09:12:59.987Z,8.77
2018-12-03T09:15:26.373Z,9.00
2018-12-03T09:17:52.757Z,11.90
2018-12-03T09:20:19.195Z,9.00
2018-12-03T09:22:45.518Z,8.17
2018-12-03T09:25:11.856Z,8.20
2018-12-03T09:27:38.241Z,9.10
2018-12-03T09:30:04.747Z,9.10
2018-12-03T09:32:31.251Z,11.50
2018-12-03T09:34:57.609Z,12.30
2018-12-03T09:37:24.005Z,8.80
2018-12-03T09:39:50.401Z,12.03
2018-12-03T09:42:16.781Z,9.27
2018-12-03T09:44:43.246Z,10.60
2018-12-03T09:47:09.623Z,10.10
2018-12-03T09:49:35.975Z,12.17
2018-12-03T09:52:02.269Z,9.80
2018-12-03T09:54:28.618Z,12.03
2018-12-03T09:56:55.060Z,9.50
2018-12-03T09:59:21.427Z,10.27
2018-12-03T10:01:47.803Z,10.73
2018-12-03T10:04:14.131Z,10.37
2018-12-03T10:06:40.501Z,10.10
2018-12-03T10:09:06.838Z,9.93
2018-12-03T10:11:33.166Z,9.97
2018-12-03T10:13:59.498Z,12.50
2018-12-03T10:16:25.941Z,14.53
2018-12-03T10:18:52.277Z,11.40
2018-12-03T10:21:18.654Z,11.03
2018-12-03T10:23:45.040Z,10.70
2018-12-03T10:26:11.437Z,15.00
2018-12-03T10:28:37.763Z,12.30
2018-12-03T10:31:04.128Z,11.63
2018-12-03T10:33:30.542Z,11.40
2018-12-03T10:35:56.915Z,12.80
2018-12-03T10:38:23.299Z,12.70
2018-12-03T10:40:49.746Z,12.40
2018-12-03T10:43:16.080Z,11.73
2018-12-03T10:45:42.492Z,11.77
2018-12-03T10:48:08.823Z,10.73
2018-12-03T10:50:35.213Z,12.10
2018-12-03T10:53:01.588Z,13.10
2018-12-03T10:55:28.279Z,12.60
2018-12-03T10:57:54.675Z,11.80
2018-12-03T11:00:21.035Z,14.30
2018-12-03T11:02:47.647Z,12.00
2018-12-03T11:05:14.006Z,11.80
2018-12-03T11:07:40.753Z,11.27
2018-12-03T11:10:07.176Z,12.47
2018-12-03T11:12:33.581Z,15.90
2018-12-03T11:15:00.040Z,10.73
2018-12-03T11:17:26.509Z,12.53
2018-12-03T11:19:53.958Z,17.47
2018-12-03T11:22:20.503Z,14.37
2018-12-03T11:24:46.921Z,12.40
2018-12-03T11:27:13.272Z,12.63
2018-12-03T11:29:39.602Z,15.80
2018-12-03T11:32:06.121Z,11.97
2018-12-03T11:34:32.467Z,11.10
2018-12-03T11:36:58.798Z,11.93
2018-12-03T11:39:25.179Z,10.93
2018-12-03T11:41:51.519Z,11.17
2018-12-03T11:44:20.026Z,11.53
2018-12-03T11:46:46.432Z,11.43
2018-12-03T11:49:12.771Z,10.80
2018-12-03T11:51:39.110Z,11.27
2018-12-03T11:54:05.544Z,12.43
2018-12-03T11:56:32.056Z,20.73
2018-12-03T11:58:58.391Z,15.80
2018-12-03T12:01:24.758Z,12.60
2018-12-03T12:03:51.310Z,14.07
2018-12-03T12:06:17.704Z,11.27
2018-12-03T12:08:44.121Z,11.50
2018-12-03T12:11:10.458Z,11.33
2018-12-03T12:13:36.918Z,14.77
2018-12-03T12:16:03.265Z,11.80
2018-12-03T12:18:29.662Z,13.80
2018-12-03T12:20:56.089Z,11.83
2018-12-03T12:23:22.513Z,12.00
2018-12-03T12:25:48.856Z,11.93
2018-12-03T12:28:15.291Z,15.00
2018-12-03T12:30:41.623Z,12.40
2018-12-03T12:33:07.955Z,12.60
2018-12-03T12:35:34.304Z,12.57
2018-12-03T12:38:00.693Z,13.50
2018-12-03T12:40:27.166Z,12.50
2018-12-03T12:42:53.507Z,11.40
2018-12-03T12:45:19.897Z,11.40
2018-12-03T12:47:46.380Z,10.67
2018-12-03T12:50:12.780Z,12.77
2018-12-03T12:52:39.151Z,10.83
2018-12-03T12:55:05.561Z,11.63
2018-12-03T12:57:31.940Z,10.37
2018-12-03T12:59:58.439Z,10.60
2018-12-03T13:02:25.005Z,16.63
2018-12-03T13:04:51.521Z,16.67
2018-12-03T13:07:17.901Z,12.80
2018-12-03T13:09:44.293Z,9.77
2018-12-03T13:12:10.629Z,10.57
2018-12-03T13:14:37.006Z,14.00
2018-12-03T13:17:03.454Z,9.87
2018-12-03T13:19:29.794Z,9.10
2018-12-03T13:21:56.174Z,9.77
2018-12-03T13:24:22.561Z,10.00
2018-12-03T13:26:48.965Z,9.70
2018-12-03T13:29:15.378Z,9.80
2018-12-03T13:31:41.747Z,10.43
2018-12-03T13:34:08.139Z,11.30
2018-12-03T13:36:34.573Z,10.57
2018-12-03T13:39:01.005Z,10.97
2018-12-03T13:41:27.525Z,10.47
2018-12-03T13:43:54.013Z,10.30
2018-12-03T13:46:20.345Z,10.60
2018-12-03T13:48:46.732Z,9.40
2018-12-03T13:51:13.212Z,10.70
2018-12-03T13:53:39.733Z,9.10
2018-12-03T13:56:08.353Z,8.77
2018-12-03T13:58:34.775Z,9.00
2018-12-03T14:01:01.195Z,10.03
2018-12-03T14:03:27.537Z,10.07
2018-12-03T14:05:56.364Z,9.80
2018-12-03T14:08:22.726Z,9.07
2018-12-03T14:10:49.075Z,10.13
2018-12-03T14:13:15.598Z,8.60
2018-12-03T14:15:41.976Z,10.77
2018-12-03T14:18:08.337Z,9.97
2018-12-03T14:20:34.702Z,10.47
2018-12-03T14:23:03.208Z,8.23
2018-12-03T14:25:29.681Z,7.97
2018-12-03T14:27:56.028Z,9.33
2018-12-03T14:30:22.474Z,11.70
2018-12-03T14:32:48.920Z,8.70
2018-12-03T14:35:15.430Z,11.57
2018-12-03T14:37:41.787Z,8.00
2018-12-03T14:40:08.156Z,14.10
2018-12-03T14:42:34.628Z,8.57
2018-12-03T14:45:01.035Z,8.60
2018-12-03T14:47:27.401Z,15.53
2018-12-03T14:49:53.822Z,9.70
2018-12-03T14:52:20.260Z,8.50
2018-12-03T14:54:46.588Z,8.47
2018-12-03T14:57:12.991Z,10.90
2018-12-03T14:59:41.539Z,8.67
2018-12-03T15:02:07.935Z,8.43
2018-12-03T15:04:34.320Z,7.60
2018-12-03T15:07:00.874Z,7.07
2018-12-03T15:09:27.303Z,9.07
2018-12-03T15:11:53.659Z,9.43
2018-12-03T15:14:20.016Z,8.33
2018-12-03T15:16:46.538Z,8.80
2018-12-03T15:19:12.900Z,12.20
2018-12-03T15:21:39.263Z,8.87
2018-12-03T15:24:05.698Z,8.50
2018-12-03T15:26:32.378Z,9.60
2018-12-03T15:28:58.806Z,8.53
2018-12-03T15:31:25.159Z,8.77
2018-12-03T15:33:51.531Z,9.67
2018-12-03T15:36:17.890Z,10.67
2018-12-03T15:38:44.239Z,8.40
2018-12-03T15:41:10.577Z,9.77
2018-12-03T15:43:36.906Z,8.17
2018-12-03T15:46:03.287Z,7.90
2018-12-03T15:48:29.701Z,8.30
2018-12-03T15:50:56.080Z,8.03
2018-12-03T15:53:22.382Z,8.53
2018-12-03T15:55:48.742Z,9.13
2018-12-03T15:58:15.129Z,8.03
2018-12-03T16:00:41.606Z,8.73
2018-12-03T16:03:08.062Z,15.20
2018-12-03T16:05:34.369Z,8.70
2018-12-03T16:08:01.857Z,9.80
2018-12-03T16:10:27.098Z,11.90
2018-12-03T16:12:53.460Z,11.13
2018-12-03T16:15:19.871Z,9.03
2018-12-03T16:17:46.191Z,8.20
2018-12-03T16:20:12.497Z,7.67
2018-12-03T16:22:38.907Z,7.77
2018-12-03T16:25:05.303Z,7.80
2018-12-03T16:27:31.586Z,7.87
2018-12-03T16:29:58.064Z,12.07
2018-12-03T16:32:24.480Z,7.07
2018-12-03T16:34:50.801Z,8.03
2018-12-03T16:37:17.211Z,7.20
2018-12-03T16:39:43.555Z,7.17
2018-12-03T16:42:09.888Z,8.47
2018-12-03T16:44:36.251Z,9.87
2018-12-03T16:47:02.576Z,7.77
2018-12-03T16:49:29.036Z,7.87
2018-12-03T16:51:55.376Z,8.03
2018-12-03T16:54:21.711Z,6.63
2018-12-03T16:56:48.059Z,7.30
2018-12-03T16:59:14.425Z,6.90
2018-12-03T17:01:40.770Z,7.33
2018-12-03T17:04:07.175Z,7.93
2018-12-03T17:06:33.515Z,7.43
2018-12-03T17:08:59.844Z,10.07
2018-12-03T17:11:26.225Z,7.37
2018-12-03T17:13:52.608Z,8.57
2018-12-03T17:16:19.076Z,6.60
2018-12-03T17:18:45.412Z,7.47
2018-12-03T17:21:11.767Z,7.40
2018-12-03T17:23:38.120Z,7.40
2018-12-03T17:26:04.494Z,7.80
2018-12-03T17:28:30.830Z,8.47
2018-12-03T17:30:57.197Z,7.17
2018-12-03T17:33:23.570Z,8.30
2018-12-03T17:35:49.976Z,7.43
2018-12-03T17:38:16.321Z,8.50
2018-12-03T17:40:42.697Z,8.33
2018-12-03T17:43:09.051Z,7.70
2018-12-03T17:45:35.384Z,8.70
2018-12-03T17:48:01.748Z,13.83
2018-12-03T17:50:28.179Z,9.17
2018-12-03T17:52:54.528Z,9.07
2018-12-03T17:55:20.861Z,9.53
2018-12-03T17:57:47.251Z,10.83
2018-12-03T18:00:13.652Z,10.17
2018-12-03T18:02:39.990Z,9.10
2018-12-03T18:05:06.401Z,9.70
2018-12-03T18:07:32.775Z,9.43
2018-12-03T18:09:59.169Z,12.80
2018-12-03T18:12:25.502Z,9.93
2018-12-03T18:14:51.833Z,13.13
2018-12-03T18:17:18.213Z,11.67
2018-12-03T18:19:44.552Z,9.67
2018-12-03T18:22:10.972Z,9.20
2018-12-03T18:24:37.237Z,11.50
2018-12-03T18:27:03.639Z,9.83
2018-12-03T18:29:29.956Z,9.43
2018-12-03T18:31:56.376Z,9.60
2018-12-03T18:34:22.764Z,9.70
2018-12-03T18:36:49.089Z,10.97
2018-12-03T18:39:15.422Z,9.70
2018-12-03T18:41:41.765Z,10.47
2018-12-03T18:44:08.107Z,10.57
2018-12-03T18:46:34.439Z,9.77
2018-12-03T18:49:00.858Z,9.43
2018-12-03T18:51:27.200Z,10.27
2018-12-03T18:53:53.544Z,10.23
2018-12-03T18:56:19.994Z,9.80
2018-12-03T18:58:46.354Z,9.70
2018-12-03T19:01:12.718Z,9.37
2018-12-03T19:03:39.170Z,10.73
2018-12-03T19:06:05.475Z,10.00
2018-12-03T19:08:31.828Z,10.40
2018-12-03T19:10:58.182Z,9.93
2018-12-03T19:13:24.589Z,10.50
2018-12-03T19:15:50.935Z,10.27
2018-12-03T19:18:17.334Z,9.83
2018-12-03T19:20:43.666Z,10.80
2018-12-03T19:23:10.097Z,10.17
2018-12-03T19:25:36.441Z,10.10
2018-12-03T19:28:02.776Z,11.10
2018-12-03T19:30:29.177Z,9.30
2018-12-03T19:32:55.545Z,10.10
2018-12-03T19:35:21.887Z,10.90
2018-12-03T19:37:48.224Z,10.17
2018-12-03T19:40:14.564Z,11.60
2018-12-03T19:42:40.961Z,9.93
2018-12-03T19:45:07.298Z,10.30
2018-12-03T19:47:33.629Z,10.37
2018-12-03T19:50:00.028Z,13.93
2018-12-03T19:52:26.433Z,10.00
2018-12-03T19:54:52.809Z,10.50
2018-12-03T19:57:19.187Z,11.13
2018-12-03T19:59:45.582Z,9.47
2018-12-03T20:02:11.929Z,9.90
2018-12-03T20:04:38.261Z,10.10
2018-12-03T20:07:04.592Z,10.10
2018-12-03T20:09:31.006Z,11.70
2018-12-03T20:11:57.309Z,11.67
2018-12-03T20:14:23.633Z,11.70
2018-12-03T20:16:49.963Z,10.13
2018-12-03T20:19:16.287Z,10.30
2018-12-03T20:21:42.661Z,10.57
2018-12-03T20:24:08.952Z,10.00
2018-12-03T20:26:35.360Z,10.80
2018-12-03T20:29:01.747Z,10.73
2018-12-03T20:31:28.087Z,11.37
2018-12-03T20:33:54.510Z,10.47
2018-12-03T20:36:20.841Z,11.10
2018-12-03T20:38:47.234Z,10.63
2018-12-03T20:41:13.578Z,10.70
2018-12-03T20:43:39.915Z,10.70
2018-12-03T20:46:06.248Z,10.90
2018-12-03T20:48:32.597Z,12.43
2018-12-03T20:50:58.935Z,11.97
2018-12-03T20:53:25.296Z,10.73
2018-12-03T20:55:51.636Z,10.30
2018-12-03T20:58:18.012Z,10.83
2018-12-03T21:00:44.343Z,13.40
2018-12-03T21:03:10.719Z,11.00
2018-12-03T21:05:37.111Z,12.70
2018-12-03T21:08:03.431Z,11.03
2018-12-03T21:13:30.590Z,10.60
2018-12-03T21:15:56.970Z,11.80
2018-12-03T21:18:23.331Z,11.00
2018-12-03T21:20:49.655Z,10.93
2018-12-03T21:23:16.068Z,11.27
2018-12-03T21:25:42.453Z,12.37
2018-12-03T21:28:08.785Z,12.60
2018-12-03T21:30:35.124Z,11.57
2018-12-03T21:33:01.510Z,10.80
2018-12-03T21:35:27.996Z,13.03
2018-12-03T21:37:54.340Z,12.20
2018-12-03T21:40:20.739Z,12.33
2018-12-03T21:42:47.174Z,11.97
2018-12-03T21:45:13.580Z,11.57
2018-12-03T21:47:39.912Z,10.97
2018-12-03T21:50:07.278Z,11.20
2018-12-03T21:52:32.631Z,12.30
2018-12-03T21:54:58.965Z,14.00
2018-12-03T21:57:25.292Z,11.57
2018-12-03T21:59:56.739Z,13.13
2018-12-03T22:02:18.014Z,13.50
2018-12-03T22:04:44.310Z,15.33
2018-12-03T22:07:10.735Z,12.10
2018-12-03T22:09:37.090Z,14.83
2018-12-03T22:12:03.413Z,15.00
2018-12-03T22:14:29.762Z,12.33
2018-12-03T22:16:56.156Z,14.13
2018-12-03T22:19:22.486Z,12.87
2018-12-03T22:21:48.915Z,12.63
2018-12-03T22:24:15.259Z,13.90
2018-12-03T22:26:41.647Z,14.13
2018-12-03T22:29:07.983Z,15.60
2018-12-03T22:31:34.319Z,12.17
2018-12-03T22:34:00.743Z,12.67
2018-12-03T22:36:27.035Z,12.80
2018-12-03T22:38:53.365Z,13.03
2018-12-03T22:41:19.705Z,13.10
2018-12-03T22:43:46.091Z,14.50
2018-12-03T22:46:12.388Z,14.03
2018-12-03T22:48:38.709Z,13.37
2018-12-03T22:51:05.039Z,13.50
2018-12-03T22:53:31.369Z,14.77
2018-12-03T22:55:59.372Z,15.50
2018-12-03T22:58:25.721Z,15.00
2018-12-03T23:00:52.100Z,14.33
2018-12-03T23:03:18.446Z,14.27
2018-12-03T23:05:44.785Z,15.50
2018-12-03T23:08:11.122Z,14.20
2018-12-03T23:10:37.500Z,15.10
2018-12-03T23:13:03.834Z,15.03
2018-12-03T23:15:30.220Z,12.80
2018-12-03T23:17:56.532Z,13.50
2018-12-03T23:20:22.863Z,14.73
2018-12-03T23:22:49.196Z,16.27
2018-12-03T23:25:15.524Z,14.10
2018-12-03T23:27:41.863Z,13.43
2018-12-03T23:30:08.254Z,15.50
2018-12-03T23:32:34.581Z,14.03
2018-12-03T23:35:00.913Z,15.23
2018-12-03T23:37:27.343Z,14.93
2018-12-03T23:39:53.772Z,16.07
2018-12-03T23:42:20.145Z,13.50
2018-12-03T23:44:46.471Z,15.83
2018-12-03T23:47:12.787Z,14.80
2018-12-03T23:49:39.153Z,15.83
2018-12-03T23:52:05.499Z,15.93
2018-12-03T23:54:31.824Z,15.80
2018-12-03T23:56:58.171Z,16.17
2018-12-03T23:59:24.498Z,14.60
